Time;durP1;ratioP1;P1;durP2;ratioP2;P2;SDS_P1;SDS_P2;PMS_P1;PMS_P2;Temp;Humidity;BMP_temperature;BMP_pressure;BME280_temperature;BME280_humidity;BME280_pressure;Samples;Min_cycle;Max_cycle;Signal;HPM_P1;HPM_P2
2021/12/31 00:01:08;;;;;;;20.10;4.18;;;12.00;99.90;;;;;;5057267;28;20052;-75
2021/12/31 00:03:33;;;;;;;25.17;4.13;;;12.00;99.90;;;;;;5040653;28;20045;-75
2021/12/31 00:05:59;;;;;;;20.15;3.65;;;12.00;99.90;;;;;;5067187;28;20037;-74
2021/12/31 00:08:25;;;;;;;24.63;4.63;;;11.90;99.90;;;;;;5038320;28;20068;-75
2021/12/31 00:10:56;;;;;;;23.52;3.78;;;11.90;99.90;;;;;;5057654;28;20048;-75
2021/12/31 00:13:22;;;;;;;22.10;3.97;;;11.90;99.90;;;;;;5039856;28;20386;-75
2021/12/31 00:15:48;;;;;;;24.33;4.45;;;11.90;99.90;;;;;;5057446;28;20107;-75
2021/12/31 00:18:14;;;;;;;21.40;3.95;;;11.90;99.90;;;;;;5040170;28;20515;-75
2021/12/31 00:20:40;;;;;;;25.90;4.10;;;11.90;99.90;;;;;;5056058;28;20084;-75
2021/12/31 00:23:09;;;;;;;29.98;5.18;;;11.90;99.90;;;;;;5056502;28;20565;-74
2021/12/31 00:25:37;;;;;;;24.00;4.43;;;11.90;99.90;;;;;;5040456;28;20048;-75
2021/12/31 00:28:04;;;;;;;22.67;4.35;;;11.90;99.90;;;;;;5056071;28;20067;-75
2021/12/31 00:30:30;;;;;;;20.35;3.60;;;11.80;99.90;;;;;;5040824;28;20126;-75
2021/12/31 00:32:56;;;;;;;22.17;4.28;;;11.80;99.90;;;;;;5056355;28;20083;-75
2021/12/31 00:35:22;;;;;;;18.98;4.07;;;11.80;99.90;;;;;;5038294;28;20508;-75
2021/12/31 00:37:48;;;;;;;30.02;4.43;;;11.80;99.90;;;;;;5045456;28;20052;-75
2021/12/31 00:40:17;;;;;;;18.23;2.92;;;11.80;99.90;;;;;;5055742;28;20044;-75
2021/12/31 00:42:43;;;;;;;33.42;5.25;;;11.80;99.90;;;;;;5056679;28;20481;-75
2021/12/31 00:45:12;;;;;;;20.50;3.65;;;11.80;99.90;;;;;;5056359;28;20057;-75
2021/12/31 00:47:39;;;;;;;30.55;5.32;;;11.80;99.90;;;;;;5055657;28;20093;-74
2021/12/31 00:50:05;;;;;;;15.90;4.32;;;11.80;99.90;;;;;;5056425;28;20040;-75
2021/12/31 00:52:31;;;;;;;21.27;3.80;;;11.80;99.90;;;;;;5056015;28;20091;-75
2021/12/31 00:54:57;;;;;;;22.00;4.35;;;11.70;99.90;;;;;;5055471;28;20463;-74
2021/12/31 00:57:22;;;;;;;30.00;4.75;;;11.70;99.90;;;;;;5039959;28;20040;-75
2021/12/31 00:59:48;;;;;;;20.83;3.60;;;11.70;99.90;;;;;;5039669;28;20183;-75
2021/12/31 01:02:16;;;;;;;28.50;5.43;;;11.70;99.90;;;;;;5073134;28;20103;-75
2021/12/31 01:04:43;;;;;;;19.00;4.25;;;11.70;99.90;;;;;;5056546;28;20052;-75
2021/12/31 01:07:09;;;;;;;27.77;6.38;;;11.60;99.90;;;;;;5023456;28;20194;-75
2021/12/31 01:09:35;;;;;;;24.83;5.18;;;11.70;99.90;;;;;;5055464;28;20131;-75
2021/12/31 01:12:01;;;;;;;20.40;4.05;;;11.60;99.90;;;;;;5039307;28;20048;-75
2021/12/31 01:14:37;;;;;;;23.02;3.70;;;11.60;99.90;;;;;;5056199;28;20488;-74
2021/12/31 01:17:08;;;;;;;25.80;6.30;;;11.60;99.90;;;;;;5038386;28;20049;-75
2021/12/31 01:19:45;;;;;;;17.80;4.03;;;11.60;99.90;;;;;;5048448;28;20048;-75
2021/12/31 01:22:13;;;;;;;22.50;3.35;;;11.60;99.90;;;;;;5035042;28;20400;-75
2021/12/31 01:24:39;;;;;;;24.95;4.00;;;11.60;99.90;;;;;;5051969;28;20102;-74
2021/12/31 01:27:05;;;;;;;20.42;3.58;;;11.60;99.90;;;;;;5055675;28;20052;-75
2021/12/31 01:29:31;;;;;;;22.88;4.22;;;11.60;99.90;;;;;;5054690;28;20044;-75
2021/12/31 01:31:56;;;;;;;19.40;3.75;;;11.60;99.90;;;;;;5055938;28;20044;-75
2021/12/31 01:34:24;;;;;;;22.17;4.20;;;11.60;99.90;;;;;;5073620;28;20049;-75
2021/12/31 01:36:51;;;;;;;19.75;4.25;;;11.60;99.90;;;;;;5054256;28;20483;-75
2021/12/31 01:39:17;;;;;;;24.92;5.20;;;11.60;99.90;;;;;;5055564;28;20455;-75
2021/12/31 01:41:43;;;;;;;25.38;4.28;;;11.60;99.90;;;;;;5055756;28;20040;-74
2021/12/31 01:44:09;;;;;;;22.55;3.90;;;11.60;99.90;;;;;;5036646;28;20098;-75
2021/12/31 01:46:40;;;;;;;20.90;3.97;;;11.60;99.90;;;;;;5054968;28;20131;-75
2021/12/31 01:49:19;;;;;;;26.30;4.88;;;11.60;99.90;;;;;;5055221;28;20495;-75
2021/12/31 01:51:45;;;;;;;20.88;4.68;;;11.60;99.90;;;;;;5027178;28;20047;-75
2021/12/31 01:54:11;;;;;;;20.85;4.43;;;11.60;99.90;;;;;;5054945;28;20044;-75
2021/12/31 01:56:37;;;;;;;24.75;4.35;;;11.60;99.90;;;;;;5055277;28;20377;-75
2021/12/31 01:59:06;;;;;;;19.33;4.18;;;11.60;99.90;;;;;;5054059;28;20044;-75
2021/12/31 02:01:33;;;;;;;17.83;3.72;;;11.60;99.90;;;;;;5055370;28;20044;-75
2021/12/31 02:03:59;;;;;;;21.05;3.90;;;11.60;99.90;;;;;;5053726;28;20507;-75
2021/12/31 02:06:26;;;;;;;16.63;4.95;;;11.70;99.90;;;;;;5043712;28;20092;-75
2021/12/31 02:08:51;;;;;;;19.55;3.95;;;11.70;99.90;;;;;;5053620;28;20040;-76
2021/12/31 02:11:18;;;;;;;17.25;3.97;;;11.60;99.90;;;;;;5054458;28;20048;-76
2021/12/31 02:13:44;;;;;;;15.52;4.03;;;11.70;99.90;;;;;;5055012;28;20048;-75
2021/12/31 02:16:09;;;;;;;18.00;3.45;;;11.70;99.90;;;;;;5054875;28;20496;-75
2021/12/31 02:18:35;;;;;;;23.13;4.25;;;11.70;99.90;;;;;;5054130;28;20080;-75
2021/12/31 02:21:03;;;;;;;23.08;3.65;;;11.80;99.90;;;;;;5047421;28;20126;-75
2021/12/31 02:23:38;;;;;;;16.58;3.08;;;11.80;99.90;;;;;;5053067;28;20052;-76
2021/12/31 02:26:04;;;;;;;18.58;3.17;;;11.80;99.90;;;;;;5064543;28;20514;-77
2021/12/31 02:28:29;;;;;;;19.75;4.60;;;11.90;99.90;;;;;;5072849;28;20032;-75
2021/12/31 02:31:00;;;;;;;13.38;2.78;;;11.90;99.90;;;;;;5072575;28;20066;-75
2021/12/31 02:33:26;;;;;;;16.38;4.05;;;11.90;99.90;;;;;;5072224;28;20040;-75
2021/12/31 02:35:52;;;;;;;15.48;3.72;;;12.00;99.90;;;;;;5054131;28;20040;-75
2021/12/31 02:38:18;;;;;;;14.32;2.80;;;12.00;99.90;;;;;;5054633;28;20500;-75
2021/12/31 02:40:43;;;;;;;11.65;2.60;;;12.00;99.90;;;;;;5053738;28;20048;-75
2021/12/31 02:43:09;;;;;;;11.50;2.30;;;12.00;99.90;;;;;;5037599;28;20036;-76
2021/12/31 02:45:37;;;;;;;12.88;2.90;;;12.00;99.90;;;;;;5042961;28;20150;-75
2021/12/31 02:48:05;;;;;;;14.73;3.03;;;12.00;99.90;;;;;;5050005;28;20106;-76
2021/12/31 02:50:33;;;;;;;15.07;3.40;;;12.00;99.90;;;;;;5051899;28;20075;-75
2021/12/31 02:53:05;;;;;;;17.27;3.03;;;12.10;99.90;;;;;;5037771;28;20044;-75
2021/12/31 02:55:32;;;;;;;12.57;2.95;;;12.10;99.90;;;;;;5037584;28;20048;-76
2021/12/31 02:57:59;;;;;;;18.08;3.40;;;12.20;99.90;;;;;;5037509;28;20051;-75
2021/12/31 03:00:26;;;;;;;10.30;2.53;;;12.20;99.90;;;;;;5054864;28;20052;-75
2021/12/31 03:02:53;;;;;;;18.83;3.78;;;12.20;99.90;;;;;;5071643;28;20443;-75
2021/12/31 03:05:19;;;;;;;12.75;2.60;;;12.20;99.90;;;;;;5071397;28;20408;-76
2021/12/31 03:07:47;;;;;;;10.57;2.40;;;12.30;99.90;;;;;;5072444;28;20090;-76
2021/12/31 03:10:14;;;;;;;13.77;2.83;;;12.30;99.90;;;;;;5058690;28;20044;-75
2021/12/31 03:12:41;;;;;;;17.98;3.70;;;12.30;99.90;;;;;;5058416;28;20102;-75
2021/12/31 03:15:10;;;;;;;8.85;2.58;;;12.30;99.90;;;;;;5057340;28;20052;-75
2021/12/31 03:17:40;;;;;;;7.25;2.35;;;12.30;99.90;;;;;;5058425;28;20050;-75
2021/12/31 03:20:15;;;;;;;14.63;2.95;;;12.30;99.90;;;;;;5058137;28;20048;-76
2021/12/31 03:22:43;;;;;;;11.57;2.53;;;12.40;99.90;;;;;;5054453;28;20051;-74
2021/12/31 03:25:10;;;;;;;16.08;3.45;;;12.40;99.90;;;;;;5057851;28;20040;-76
2021/12/31 03:27:36;;;;;;;15.00;4.00;;;12.40;99.90;;;;;;5041163;28;20115;-75
2021/12/31 03:30:04;;;;;;;9.68;2.58;;;12.40;99.90;;;;;;5057079;28;20087;-75
2021/12/31 03:32:30;;;;;;;12.57;2.53;;;12.40;99.90;;;;;;5057930;28;20515;-75
2021/12/31 03:34:56;;;;;;;19.45;2.83;;;12.30;99.90;;;;;;5058179;28;20053;-75
2021/12/31 03:37:22;;;;;;;15.50;3.15;;;12.30;99.90;;;;;;5051680;28;20059;-74
2021/12/31 03:39:47;;;;;;;10.57;2.63;;;12.30;99.90;;;;;;5058049;28;20052;-76
2021/12/31 03:42:16;;;;;;;13.88;2.53;;;12.30;99.90;;;;;;5057584;28;20396;-76
2021/12/31 03:44:44;;;;;;;12.68;2.92;;;12.30;99.90;;;;;;5074576;28;20061;-76
2021/12/31 03:47:10;;;;;;;9.68;2.22;;;12.30;99.90;;;;;;5057232;28;20041;-76
2021/12/31 03:49:36;;;;;;;11.80;2.55;;;12.20;99.90;;;;;;5057804;28;20136;-76
2021/12/31 03:52:02;;;;;;;10.45;3.33;;;12.20;99.90;;;;;;5055964;28;20070;-75
2021/12/31 03:54:28;;;;;;;8.27;2.42;;;12.30;99.90;;;;;;5037970;28;20591;-75
2021/12/31 03:56:53;;;;;;;14.20;2.90;;;12.30;99.90;;;;;;5036582;28;20496;-74
2021/12/31 03:59:19;;;;;;;10.93;2.80;;;12.30;99.90;;;;;;5057414;28;20382;-75
2021/12/31 04:01:45;;;;;;;13.52;2.92;;;12.30;99.90;;;;;;5057375;28;20059;-75
2021/12/31 04:04:12;;;;;;;23.20;5.18;;;12.30;99.90;;;;;;5056378;28;20044;-75
2021/12/31 04:06:39;;;;;;;13.45;3.33;;;12.30;99.90;;;;;;5057034;28;20123;-75
2021/12/31 04:09:06;;;;;;;15.35;2.67;;;12.30;99.90;;;;;;5057397;28;20139;-75
2021/12/31 04:11:31;;;;;;;12.38;2.90;;;12.30;99.90;;;;;;5056063;28;20040;-75
2021/12/31 04:13:57;;;;;;;14.73;2.92;;;12.20;99.90;;;;;;5056899;28;20063;-74
2021/12/31 04:16:23;;;;;;;15.45;2.72;;;12.20;99.90;;;;;;5056831;28;20047;-75
2021/12/31 04:18:49;;;;;;;12.43;2.25;;;12.20;99.90;;;;;;5056777;28;20088;-75
2021/12/31 04:21:16;;;;;;;14.90;2.80;;;12.30;99.90;;;;;;5056342;28;20416;-75
2021/12/31 04:24:04;;;;;;;5.43;2.10;;;12.30;99.90;;;;;;5075228;28;20458;-75
2021/12/31 04:26:31;;;;;;;11.07;2.90;;;12.30;99.90;;;;;;5056060;28;20083;-75
2021/12/31 04:28:57;;;;;;;13.25;3.08;;;12.30;99.90;;;;;;5056972;28;20040;-75
2021/12/31 04:31:23;;;;;;;13.15;2.72;;;12.40;99.90;;;;;;5040263;28;20048;-76
2021/12/31 04:33:49;;;;;;;9.88;2.70;;;12.40;99.90;;;;;;5056664;28;20056;-75
2021/12/31 04:36:14;;;;;;;7.82;2.10;;;12.40;99.90;;;;;;5055691;28;20480;-76
2021/12/31 04:38:40;;;;;;;10.15;2.47;;;12.40;99.90;;;;;;5057042;28;20123;-75
2021/12/31 04:41:06;;;;;;;11.50;2.28;;;12.40;99.90;;;;;;5055616;28;20036;-75
2021/12/31 04:43:32;;;;;;;7.03;2.00;;;12.40;99.90;;;;;;5056432;28;20044;-76
2021/12/31 04:45:58;;;;;;;7.97;1.83;;;12.40;99.90;;;;;;5056357;28;20055;-75
2021/12/31 04:48:24;;;;;;;8.27;2.20;;;12.50;99.90;;;;;;5055959;28;20040;-75
2021/12/31 04:50:50;;;;;;;7.05;2.30;;;12.50;99.90;;;;;;5055778;28;20571;-75
2021/12/31 04:53:16;;;;;;;10.75;2.25;;;12.40;99.90;;;;;;5073704;28;20113;-75
2021/12/31 04:55:42;;;;;;;7.55;2.08;;;12.40;99.90;;;;;;5056836;28;20400;-75
2021/12/31 04:58:08;;;;;;;9.02;2.63;;;12.40;99.90;;;;;;5056270;28;20106;-76
2021/12/31 05:00:34;;;;;;;6.13;1.90;;;12.40;99.90;;;;;;5055711;28;20052;-74
2021/12/31 05:03:07;;;;;;;6.78;2.10;;;12.40;99.90;;;;;;5056394;28;20049;-75
2021/12/31 05:05:33;;;;;;;12.35;2.80;;;12.40;99.90;;;;;;5055193;28;20059;-75
2021/12/31 05:07:59;;;;;;;8.48;2.75;;;12.30;99.90;;;;;;5054935;28;20115;-76
2021/12/31 05:10:24;;;;;;;7.63;2.42;;;12.30;99.90;;;;;;5056443;28;20056;-75
2021/12/31 05:12:55;;;;;;;7.97;2.58;;;12.20;99.90;;;;;;5074426;28;20103;-76
2021/12/31 05:15:26;;;;;;;9.43;2.60;;;12.20;99.90;;;;;;5054981;28;20128;-75
2021/12/31 05:17:52;;;;;;;8.00;2.47;;;12.10;99.90;;;;;;5056541;28;20048;-75
2021/12/31 05:20:18;;;;;;;7.55;2.42;;;12.10;99.90;;;;;;5072103;28;20033;-75
2021/12/31 05:22:44;;;;;;;6.40;2.30;;;12.10;99.90;;;;;;5035380;28;20057;-75
2021/12/31 05:25:10;;;;;;;8.65;2.60;;;12.10;99.90;;;;;;5049158;28;20052;-75
2021/12/31 05:27:36;;;;;;;9.90;2.90;;;12.10;99.90;;;;;;5055944;28;20044;-75
2021/12/31 05:30:02;;;;;;;4.10;2.05;;;12.10;99.90;;;;;;5054079;28;20480;-75
2021/12/31 05:32:28;;;;;;;6.60;2.50;;;12.10;99.90;;;;;;5056066;28;20094;-76
2021/12/31 05:34:53;;;;;;;9.80;3.20;;;12.10;99.90;;;;;;5055647;28;20147;-76
2021/12/31 05:37:19;;;;;;;9.05;2.80;;;12.10;99.90;;;;;;5053791;28;20041;-75
2021/12/31 05:39:45;;;;;;;9.73;2.88;;;12.10;99.90;;;;;;5055721;28;20071;-75
2021/12/31 05:42:11;;;;;;;7.75;2.92;;;12.20;99.90;;;;;;5055168;28;20044;-75
2021/12/31 05:44:37;;;;;;;9.50;2.35;;;12.20;99.90;;;;;;5054579;28;20056;-75
2021/12/31 05:47:03;;;;;;;9.40;3.38;;;12.20;99.90;;;;;;5055184;28;20067;-75
2021/12/31 05:49:29;;;;;;;10.15;2.67;;;12.30;99.90;;;;;;5054726;28;20106;-75
2021/12/31 05:51:54;;;;;;;7.60;2.60;;;12.30;99.90;;;;;;5054803;28;20057;-75
2021/12/31 05:54:20;;;;;;;5.45;2.58;;;12.30;99.90;;;;;;5055181;28;20477;-75
2021/12/31 05:56:46;;;;;;;7.20;1.88;;;12.30;99.90;;;;;;5054457;28;20113;-75
2021/12/31 05:59:12;;;;;;;6.78;2.47;;;12.30;99.90;;;;;;5038439;28;20044;-76
2021/12/31 06:01:37;;;;;;;6.47;3.10;;;12.30;99.90;;;;;;5055403;28;20106;-75
2021/12/31 06:04:03;;;;;;;8.10;2.53;;;12.30;99.90;;;;;;5054151;28;20040;-75
2021/12/31 06:06:29;;;;;;;7.25;2.17;;;12.40;99.90;;;;;;5044287;28;20500;-75
2021/12/31 06:08:55;;;;;;;6.22;1.90;;;12.40;99.90;;;;;;5018818;28;20048;-75
2021/12/31 06:11:21;;;;;;;8.43;2.72;;;12.40;99.90;;;;;;5049618;28;20052;-75
2021/12/31 06:13:54;;;;;;;6.72;2.28;;;12.40;99.90;;;;;;5073138;28;20036;-75
2021/12/31 06:16:20;;;;;;;6.18;1.92;;;12.40;99.90;;;;;;5072801;28;20134;-75
2021/12/31 06:18:46;;;;;;;9.05;2.47;;;12.40;99.90;;;;;;5072424;28;20048;-76
2021/12/31 06:21:12;;;;;;;5.05;2.50;;;12.40;99.90;;;;;;5053819;28;20090;-75
2021/12/31 06:23:37;;;;;;;5.30;1.90;;;12.40;99.90;;;;;;5073035;28;20111;-75
2021/12/31 06:26:03;;;;;;;5.32;2.00;;;12.40;99.90;;;;;;5071450;28;20041;-75
2021/12/31 06:28:29;;;;;;;7.78;2.35;;;12.30;99.90;;;;;;5054879;28;20480;-75
2021/12/31 06:30:55;;;;;;;4.15;2.20;;;12.30;99.90;;;;;;5054913;28;20048;-75
2021/12/31 06:33:20;;;;;;;8.88;2.38;;;12.30;99.90;;;;;;5053372;28;20150;-76
2021/12/31 06:35:46;;;;;;;6.45;2.42;;;12.30;99.90;;;;;;5068363;28;20036;-75
2021/12/31 06:38:12;;;;;;;7.55;2.50;;;12.30;99.90;;;;;;5054736;28;20045;-75
2021/12/31 06:40:38;;;;;;;7.78;2.42;;;12.20;99.90;;;;;;5053739;28;20534;-76
2021/12/31 06:43:04;;;;;;;6.20;1.92;;;12.20;99.90;;;;;;5054078;28;20053;-75
2021/12/31 06:45:30;;;;;;;8.10;2.20;;;12.20;99.90;;;;;;5054565;28;20067;-76
2021/12/31 06:47:56;;;;;;;5.40;2.00;;;12.20;99.90;;;;;;5054000;28;20047;-75
2021/12/31 06:50:22;;;;;;;6.63;2.15;;;12.10;99.90;;;;;;5054192;28;20078;-75
2021/12/31 06:52:48;;;;;;;6.55;1.88;;;12.10;99.90;;;;;;5037382;28;20460;-75
2021/12/31 06:55:14;;;;;;;7.68;1.88;;;12.10;99.90;;;;;;5054343;28;20125;-75
2021/12/31 06:57:40;;;;;;;6.20;2.10;;;12.10;99.90;;;;;;5054588;28;20404;-75
2021/12/31 07:00:08;;;;;;;6.88;2.42;;;12.10;99.90;;;;;;5053270;28;20055;-75
2021/12/31 07:02:33;;;;;;;5.78;1.73;;;12.10;99.90;;;;;;5054859;28;20044;-75
2021/12/31 07:04:59;;;;;;;7.43;2.10;;;12.10;99.90;;;;;;5053974;28;20542;-76
2021/12/31 07:07:25;;;;;;;6.45;1.98;;;12.10;99.90;;;;;;5050550;28;20045;-76
2021/12/31 07:09:51;;;;;;;5.20;1.75;;;12.20;99.90;;;;;;5046651;28;20040;-75
2021/12/31 07:12:17;;;;;;;8.75;2.35;;;12.10;99.90;;;;;;5054225;28;20048;-76
2021/12/31 07:14:42;;;;;;;5.78;1.88;;;12.10;99.90;;;;;;5036682;28;20060;-75
2021/12/31 07:17:10;;;;;;;5.53;1.88;;;12.10;99.90;;;;;;5054432;28;20104;-75
2021/12/31 07:19:35;;;;;;;6.88;2.08;;;12.10;99.90;;;;;;5054177;28;20056;-75
2021/12/31 07:22:01;;;;;;;6.47;1.60;;;12.10;99.90;;;;;;5055971;28;20112;-75
2021/12/31 07:24:27;;;;;;;5.03;1.70;;;12.10;99.90;;;;;;5025295;28;20044;-75
2021/12/31 07:26:53;;;;;;;3.47;1.50;;;12.00;99.90;;;;;;5054439;28;20455;-75
2021/12/31 07:29:18;;;;;;;7.03;2.05;;;12.00;99.90;;;;;;5053190;28;20040;-75
2021/12/31 07:31:44;;;;;;;8.43;2.00;;;11.90;99.90;;;;;;5072179;28;20119;-75
2021/12/31 07:34:10;;;;;;;5.90;2.13;;;12.00;99.90;;;;;;5071917;28;20043;-75
2021/12/31 07:36:35;;;;;;;3.38;1.40;;;11.90;99.90;;;;;;5070889;28;20040;-75
2021/12/31 07:39:07;;;;;;;5.50;2.22;;;11.90;99.90;;;;;;5071447;28;20078;-75
2021/12/31 07:41:33;;;;;;;3.75;1.20;;;11.90;99.90;;;;;;5054581;28;20447;-75
2021/12/31 07:43:58;;;;;;;8.25;2.13;;;11.90;99.90;;;;;;5051560;28;20059;-76
2021/12/31 07:46:24;;;;;;;5.53;2.10;;;11.90;99.90;;;;;;5054532;28;20048;-75
2021/12/31 07:48:50;;;;;;;6.00;2.13;;;11.90;99.90;;;;;;5054630;28;20076;-76
2021/12/31 07:51:16;;;;;;;4.45;1.75;;;12.00;99.90;;;;;;5036530;28;20040;-76
2021/12/31 07:53:42;;;;;;;4.40;1.80;;;12.00;99.90;;;;;;5074264;28;20036;-75
2021/12/31 07:56:08;;;;;;;3.63;1.60;;;12.00;99.90;;;;;;5055211;28;20511;-75
2021/12/31 07:58:33;;;;;;;4.03;2.50;;;12.00;99.90;;;;;;5055725;28;20131;-76
2021/12/31 08:00:59;;;;;;;4.32;2.13;;;12.00;99.90;;;;;;5040710;28;20044;-75
2021/12/31 08:03:25;;;;;;;5.88;1.65;;;12.00;99.90;;;;;;5057007;28;20460;-75
2021/12/31 08:05:51;;;;;;;4.53;1.77;;;12.00;99.90;;;;;;5044938;28;20048;-75
2021/12/31 08:08:17;;;;;;;7.25;2.38;;;12.10;99.90;;;;;;5066557;28;20142;-75
2021/12/31 08:10:42;;;;;;;4.78;1.70;;;12.00;99.90;;;;;;5054074;28;20073;-75
2021/12/31 08:13:08;;;;;;;6.45;2.08;;;12.00;99.90;;;;;;5057852;28;20048;-77
2021/12/31 08:15:34;;;;;;;6.95;2.10;;;12.00;99.90;;;;;;5057476;28;20049;-77
2021/12/31 08:18:00;;;;;;;3.78;1.80;;;12.00;99.90;;;;;;5040478;28;20093;-77
2021/12/31 08:20:26;;;;;;;4.85;2.20;;;12.00;99.90;;;;;;5071905;28;20056;-77
2021/12/31 08:22:52;;;;;;;7.07;2.05;;;12.00;99.90;;;;;;5096213;28;20043;-77
2021/12/31 08:25:18;;;;;;;2.63;1.50;;;12.10;99.90;;;;;;5068341;28;20476;-77
2021/12/31 08:27:44;;;;;;;6.65;2.22;;;12.00;99.90;;;;;;5053777;28;20489;-77
2021/12/31 08:30:11;;;;;;;3.05;1.55;;;12.10;99.90;;;;;;5074612;28;20063;-79
2021/12/31 08:32:37;;;;;;;5.43;1.48;;;12.10;99.90;;;;;;5074971;28;20062;-79
2021/12/31 08:35:05;;;;;;;9.57;2.40;;;12.10;99.90;;;;;;5057513;28;20056;-79
2021/12/31 08:37:31;;;;;;;4.65;1.90;;;12.10;99.90;;;;;;5039495;28;20404;-78
2021/12/31 08:39:57;;;;;;;5.90;1.90;;;12.20;99.90;;;;;;5054250;28;20048;-78
2021/12/31 08:42:24;;;;;;;10.32;2.90;;;12.20;99.90;;;;;;5040695;28;20081;-78
2021/12/31 08:44:50;;;;;;;6.97;2.00;;;12.20;99.90;;;;;;5046305;28;20084;-77
2021/12/31 08:47:15;;;;;;;7.05;2.20;;;12.20;99.90;;;;;;5053409;28;20037;-79
2021/12/31 08:49:41;;;;;;;4.93;1.98;;;12.20;99.90;;;;;;5054458;28;20055;-77
2021/12/31 08:52:07;;;;;;;7.93;1.67;;;12.20;99.90;;;;;;5056999;28;20411;-78
2021/12/31 08:54:33;;;;;;;6.32;2.50;;;12.20;99.90;;;;;;5056474;28;20040;-78
2021/12/31 08:57:00;;;;;;;4.50;2.13;;;12.20;99.90;;;;;;5057308;28;20041;-79
2021/12/31 08:59:26;;;;;;;7.43;1.88;;;12.20;99.90;;;;;;5056421;28;20127;-78
2021/12/31 09:01:52;;;;;;;7.20;1.90;;;12.30;99.90;;;;;;5040085;28;20052;-78
2021/12/31 09:04:18;;;;;;;6.53;2.17;;;12.20;99.90;;;;;;5057074;28;20044;-77
2021/12/31 09:06:43;;;;;;;8.77;2.50;;;12.20;99.90;;;;;;5056473;28;20063;-77
2021/12/31 09:09:09;;;;;;;6.28;2.45;;;12.20;99.90;;;;;;5057146;28;20396;-78
2021/12/31 09:11:35;;;;;;;7.55;2.45;;;12.20;99.90;;;;;;5057204;28;20391;-76
2021/12/31 09:14:01;;;;;;;6.32;2.25;;;12.20;99.90;;;;;;5039741;28;20040;-78
2021/12/31 09:16:27;;;;;;;4.07;2.33;;;12.20;99.90;;;;;;5057077;28;20487;-76
2021/12/31 09:18:53;;;;;;;9.70;2.47;;;12.20;99.90;;;;;;5040556;28;20090;-76
2021/12/31 09:21:20;;;;;;;8.13;3.42;;;12.20;99.90;;;;;;5055801;28;20123;-77
2021/12/31 09:23:46;;;;;;;5.25;2.63;;;12.20;99.90;;;;;;5053066;28;20049;-76
2021/12/31 09:26:12;;;;;;;5.20;2.50;;;12.20;99.90;;;;;;5053409;28;20060;-77
2021/12/31 09:28:38;;;;;;;5.78;2.58;;;12.20;99.90;;;;;;5054001;28;20045;-77
2021/12/31 09:31:05;;;;;;;7.15;2.17;;;12.30;99.90;;;;;;5054682;28;20041;-77
2021/12/31 09:33:31;;;;;;;8.00;3.00;;;12.30;99.90;;;;;;5053413;28;20049;-78
2021/12/31 09:35:57;;;;;;;7.90;3.03;;;12.20;99.90;;;;;;5055367;28;20067;-78
2021/12/31 09:38:23;;;;;;;7.35;2.53;;;12.20;99.90;;;;;;5056623;28;20052;-78
2021/12/31 09:40:49;;;;;;;7.07;2.42;;;12.20;99.90;;;;;;5056322;28;20048;-80
2021/12/31 09:43:14;;;;;;;11.40;2.58;;;12.20;99.90;;;;;;5055478;28;20073;-78
2021/12/31 09:45:43;;;;;;;4.90;2.80;;;12.10;99.90;;;;;;5056017;28;20053;-80
2021/12/31 09:48:14;;;;;;;6.32;2.10;;;12.10;99.90;;;;;;5056214;28;20049;-80
2021/12/31 09:50:46;;;;;;;3.92;2.03;;;12.10;99.90;;;;;;5053791;28;20409;-80
2021/12/31 09:53:13;;;;;;;8.73;2.50;;;12.10;99.90;;;;;;5056144;28;20055;-80
2021/12/31 09:55:44;;;;;;;6.47;2.28;;;12.00;99.90;;;;;;5055594;28;20396;-79
2021/12/31 09:58:12;;;;;;;6.95;2.53;;;12.00;99.90;;;;;;5056252;28;20492;-79
2021/12/31 10:00:43;;;;;;;5.75;2.22;;;11.90;99.90;;;;;;5039444;28;20184;-79
2021/12/31 10:03:09;;;;;;;7.45;2.17;;;11.90;99.90;;;;;;5073231;28;20102;-79
2021/12/31 10:05:43;;;;;;;9.07;3.45;;;12.00;99.90;;;;;;5070470;28;20040;-79
2021/12/31 10:08:23;;;;;;;4.47;2.20;;;11.90;99.90;;;;;;5021037;28;20049;-78
2021/12/31 10:11:04;;;;;;;7.60;3.25;;;11.90;99.90;;;;;;5055354;28;20041;-78
2021/12/31 10:13:30;;;;;;;6.93;2.83;;;11.80;99.90;;;;;;5056012;28;20429;-79
2021/12/31 10:15:56;;;;;;;9.75;2.70;;;11.80;99.90;;;;;;5054777;28;20078;-78
2021/12/31 10:18:33;;;;;;;4.85;2.30;;;11.80;99.90;;;;;;5054981;28;20481;-79
2021/12/31 10:20:59;;;;;;;7.35;2.60;;;11.70;99.90;;;;;;5049213;28;20053;-78
2021/12/31 10:23:25;;;;;;;11.35;3.10;;;11.70;99.90;;;;;;5036118;28;20072;-79
2021/12/31 10:26:15;;;;;;;9.07;2.65;;;11.70;99.90;;;;;;5035083;28;20473;-79
2021/12/31 10:28:55;;;;;;;8.60;2.90;;;11.70;99.90;;;;;;5035741;28;20530;-79
2021/12/31 10:31:21;;;;;;;5.78;2.67;;;11.60;99.90;;;;;;5052822;28;20053;-78
2021/12/31 10:33:49;;;;;;;14.02;3.38;;;11.60;99.90;;;;;;5053706;28;20063;-79
2021/12/31 10:36:35;;;;;;;6.85;3.28;;;11.60;99.90;;;;;;5019767;28;20058;-79
2021/12/31 10:39:23;;;;;;;5.72;3.22;;;11.60;99.90;;;;;;5035144;28;20045;-79
2021/12/31 10:42:09;;;;;;;8.32;2.92;;;11.60;99.90;;;;;;5035677;28;20032;-80
2021/12/31 10:44:46;;;;;;;9.80;3.60;;;11.60;99.90;;;;;;5042377;28;20128;-78
2021/12/31 10:47:14;;;;;;;8.10;3.45;;;11.60;99.90;;;;;;5052086;28;20114;-78
2021/12/31 10:50:02;;;;;;;6.43;3.50;;;11.60;99.90;;;;;;5053224;28;20493;-79
2021/12/31 10:52:39;;;;;;;7.55;3.50;;;11.50;99.90;;;;;;5054622;28;20456;-78
2021/12/31 10:55:23;;;;;;;5.28;2.45;;;11.50;99.90;;;;;;5073389;28;20049;-79
2021/12/31 10:57:51;;;;;;;8.93;2.95;;;11.50;99.90;;;;;;5055346;28;20091;-79
2021/12/31 11:00:19;;;;;;;12.63;3.55;;;11.50;99.90;;;;;;5054498;28;20555;-78
2021/12/31 11:02:45;;;;;;;7.43;3.33;;;11.60;99.90;;;;;;5073414;28;20449;-79
2021/12/31 11:05:14;;;;;;;7.93;3.17;;;11.60;99.90;;;;;;5055121;28;20049;-78
2021/12/31 11:07:41;;;;;;;7.20;2.78;;;11.60;99.90;;;;;;5034725;28;20049;-78
2021/12/31 11:10:08;;;;;;;7.38;3.33;;;11.60;99.90;;;;;;5053252;28;20369;-78
2021/12/31 11:12:35;;;;;;;8.32;3.10;;;11.60;99.90;;;;;;5073358;28;20436;-79
2021/12/31 11:15:02;;;;;;;7.97;3.10;;;11.60;99.90;;;;;;5038203;28;20124;-79
2021/12/31 11:17:28;;;;;;;4.97;3.00;;;11.60;99.90;;;;;;5038596;28;20183;-78
2021/12/31 11:19:54;;;;;;;8.07;2.78;;;11.60;99.90;;;;;;5054634;28;20178;-78
2021/12/31 11:22:27;;;;;;;7.20;3.20;;;11.60;99.90;;;;;;5054769;28;20053;-78
2021/12/31 11:24:53;;;;;;;6.30;2.90;;;11.60;99.90;;;;;;5073155;28;20047;-78
2021/12/31 11:27:36;;;;;;;5.75;3.13;;;11.60;99.90;;;;;;5056440;28;20070;-77
2021/12/31 11:30:03;;;;;;;12.02;2.95;;;11.60;99.90;;;;;;5077039;28;20142;-78
2021/12/31 11:32:47;;;;;;;9.18;2.95;;;11.60;99.90;;;;;;5077160;28;20041;-78
2021/12/31 11:35:32;;;;;;;13.50;3.53;;;11.60;99.90;;;;;;5057891;28;20075;-78
2021/12/31 11:37:59;;;;;;;12.68;3.75;;;11.50;99.90;;;;;;5029213;28;20106;-77
2021/12/31 11:40:36;;;;;;;11.95;3.40;;;11.50;99.90;;;;;;5058991;28;20049;-77
2021/12/31 11:43:25;;;;;;;13.27;3.80;;;11.50;99.90;;;;;;5075762;28;20385;-77
2021/12/31 11:46:09;;;;;;;17.80;4.38;;;11.50;99.90;;;;;;5056441;28;20048;-77
2021/12/31 11:48:50;;;;;;;18.20;4.90;;;11.40;99.90;;;;;;5054559;28;20063;-77
2021/12/31 11:51:33;;;;;;;13.00;3.80;;;11.40;99.90;;;;;;5055147;28;20124;-77
2021/12/31 11:53:58;;;;;;;8.90;3.53;;;11.40;99.90;;;;;;5055450;28;20056;-77
2021/12/31 11:56:34;;;;;;;12.68;3.97;;;11.40;99.90;;;;;;5054541;28;20410;-77
2021/12/31 11:59:12;;;;;;;11.93;3.53;;;11.40;99.90;;;;;;5055226;28;20130;-77
2021/12/31 12:01:37;;;;;;;10.63;4.03;;;11.40;99.90;;;;;;5055142;28;20473;-77
2021/12/31 12:04:23;;;;;;;7.28;3.25;;;11.30;99.90;;;;;;5037235;28;20141;-77
2021/12/31 12:07:04;;;;;;;7.40;3.75;;;11.30;99.90;;;;;;5054712;28;20526;-77
2021/12/31 12:09:35;;;;;;;10.52;4.43;;;11.30;99.90;;;;;;5037543;28;20049;-78
2021/12/31 12:12:10;;;;;;;15.07;4.28;;;11.20;99.90;;;;;;5054980;28;20045;-77
2021/12/31 12:14:47;;;;;;;7.72;3.80;;;11.20;99.90;;;;;;5054732;28;20081;-77
2021/12/31 12:17:15;;;;;;;19.40;7.25;;;11.20;99.90;;;;;;5054275;28;20053;-77
2021/12/31 12:19:47;;;;;;;13.27;4.88;;;11.20;99.90;;;;;;5055009;28;20138;-77
2021/12/31 12:22:44;;;;;;;10.75;4.13;;;11.20;99.90;;;;;;5054786;28;20060;-78
2021/12/31 12:25:22;;;;;;;6.93;3.13;;;11.20;99.90;;;;;;5037129;28;20550;-78
2021/12/31 12:28:02;;;;;;;8.23;4.28;;;11.20;99.90;;;;;;5038126;28;20048;-78
2021/12/31 12:30:29;;;;;;;8.70;4.60;;;11.20;99.90;;;;;;5053807;28;20470;-78
2021/12/31 12:33:16;;;;;;;8.15;3.55;;;11.20;99.90;;;;;;5055733;28;20492;-78
2021/12/31 12:35:45;;;;;;;9.98;3.95;;;11.20;99.90;;;;;;5055633;28;20039;-78
2021/12/31 12:38:12;;;;;;;8.93;3.58;;;11.20;99.90;;;;;;5054512;28;20045;-78
2021/12/31 12:40:49;;;;;;;8.65;2.95;;;11.20;99.90;;;;;;5054632;28;20041;-78
2021/12/31 12:43:30;;;;;;;5.60;2.70;;;11.20;99.90;;;;;;5055707;28;20144;-79
2021/12/31 12:46:00;;;;;;;5.50;2.80;;;11.20;99.90;;;;;;5054875;28;20049;-78
2021/12/31 12:48:45;;;;;;;4.57;2.45;;;11.20;99.90;;;;;;5054433;28;20457;-78